createdAt,value
2019-04-26T00:00:11.964Z,881.77
2019-04-26T00:01:11.813Z,881.72
2019-04-26T00:02:12.284Z,881.77
2019-04-26T00:03:12.118Z,881.79
2019-04-26T00:04:12.098Z,881.76
2019-04-26T00:05:11.216Z,881.83
2019-04-26T00:06:12.335Z,881.78
2019-04-26T00:07:11.193Z,881.69
2019-04-26T00:08:11.809Z,881.62
2019-04-26T00:09:11.816Z,881.64
2019-04-26T00:10:11.752Z,881.64
2019-04-26T00:11:11.878Z,881.66
2019-04-26T00:12:12.140Z,881.77
2019-04-26T00:13:12.372Z,881.84
2019-04-26T00:14:12.311Z,881.82
2019-04-26T00:15:12.127Z,881.80
2019-04-26T00:16:11.715Z,881.91
2019-04-26T00:17:11.534Z,881.90
2019-04-26T00:18:11.836Z,881.80
2019-04-26T00:19:11.172Z,881.74
2019-04-26T00:20:11.915Z,881.66
2019-04-26T00:21:11.726Z,881.59
2019-04-26T00:22:11.016Z,881.44
2019-04-26T00:23:11.860Z,881.32
2019-04-26T00:24:11.731Z,881.36
2019-04-26T00:25:11.425Z,881.47
2019-04-26T00:26:11.055Z,881.43
2019-04-26T00:27:11.387Z,881.53
2019-04-26T00:28:11.714Z,881.51
2019-04-26T00:29:11.397Z,881.47
2019-04-26T00:30:12.095Z,881.40
2019-04-26T00:31:11.521Z,881.41
2019-04-26T00:32:12.170Z,881.43
2019-04-26T00:33:12.432Z,881.45
2019-04-26T00:34:10.969Z,881.44
2019-04-26T00:35:11.615Z,881.43
2019-04-26T00:36:10.852Z,881.28
2019-04-26T00:37:11.590Z,881.25
2019-04-26T00:38:11.618Z,881.21
2019-04-26T00:39:11.846Z,881.13
2019-04-26T00:40:11.690Z,881.16
2019-04-26T00:41:10.787Z,881.23
2019-04-26T00:42:10.778Z,881.21
2019-04-26T00:43:10.767Z,881.40
2019-04-26T00:44:10.759Z,881.38
2019-04-26T00:45:10.753Z,881.38
2019-04-26T00:46:10.731Z,881.25
2019-04-26T00:47:10.726Z,881.16
2019-04-26T00:48:10.712Z,881.25
2019-04-26T00:49:10.698Z,881.07
2019-04-26T00:50:10.690Z,881.04
2019-04-26T00:51:10.672Z,881.20
2019-04-26T00:52:10.662Z,881.16
2019-04-26T00:53:10.644Z,881.15
2019-04-26T00:54:10.634Z,881.21
2019-04-26T00:55:10.626Z,881.21
2019-04-26T00:56:10.615Z,881.21
2019-04-26T00:57:10.599Z,881.19
2019-04-26T00:58:10.593Z,881.22
2019-04-26T00:59:10.584Z,881.18
2019-04-26T01:00:10.562Z,881.09
2019-04-26T01:01:10.560Z,881.18
2019-04-26T01:02:10.601Z,881.12
2019-04-26T01:03:10.533Z,881.12
2019-04-26T01:04:10.519Z,881.13
2019-04-26T01:05:10.509Z,881.13
2019-04-26T01:06:10.497Z,881.14
2019-04-26T01:07:10.485Z,881.15
2019-04-26T01:08:10.475Z,881.17
2019-04-26T01:09:10.461Z,881.10
2019-04-26T01:10:10.449Z,880.99
2019-04-26T01:11:10.434Z,881.08
2019-04-26T01:12:10.422Z,881.03
2019-04-26T01:13:10.406Z,880.96
2019-04-26T01:14:10.399Z,881.02
2019-04-26T01:15:10.388Z,880.91
2019-04-26T01:16:10.372Z,880.94
2019-04-26T01:17:10.362Z,881.04
2019-04-26T01:18:10.351Z,880.99
2019-04-26T01:19:10.337Z,880.99
2019-04-26T01:20:10.334Z,881.11
2019-04-26T01:21:10.315Z,880.95
2019-04-26T01:22:10.305Z,881.01
2019-04-26T01:23:10.285Z,881.01
2019-04-26T01:24:10.282Z,881.00
2019-04-26T01:25:10.267Z,880.99
2019-04-26T01:26:10.253Z,881.10
2019-04-26T01:27:10.234Z,881.09
2019-04-26T01:28:10.230Z,881.04
2019-04-26T01:29:10.223Z,880.98
2019-04-26T01:30:10.200Z,881.03
2019-04-26T01:31:10.195Z,881.08
2019-04-26T01:32:10.185Z,881.02
2019-04-26T01:33:10.173Z,881.03
2019-04-26T01:34:10.165Z,881.01
2019-04-26T01:35:10.148Z,880.85
2019-04-26T01:36:13.031Z,881.03
2019-04-26T01:37:10.126Z,881.06
2019-04-26T01:38:10.110Z,880.93
2019-04-26T01:39:10.102Z,880.96
2019-04-26T01:40:10.090Z,880.99
2019-04-26T01:41:10.072Z,881.06
2019-04-26T01:42:10.075Z,881.06
2019-04-26T01:43:10.061Z,881.08
2019-04-26T01:44:10.039Z,881.03
2019-04-26T01:45:10.028Z,881.03
2019-04-26T01:46:10.013Z,881.01
2019-04-26T01:47:10.001Z,881.01
2019-04-26T01:48:09.997Z,881.05
2019-04-26T01:49:09.979Z,881.03
2019-04-26T01:50:09.971Z,880.99
2019-04-26T01:51:09.958Z,881.01
2019-04-26T01:52:09.946Z,880.97
2019-04-26T01:53:09.934Z,881.02
2019-04-26T01:54:09.922Z,881.10
2019-04-26T01:55:09.907Z,880.90
2019-04-26T01:56:09.907Z,880.87
2019-04-26T01:57:09.890Z,880.80
2019-04-26T01:58:09.868Z,880.82
2019-04-26T01:59:09.861Z,880.89
2019-04-26T02:00:09.849Z,880.96
2019-04-26T02:01:09.837Z,880.97
2019-04-26T02:02:09.823Z,881.00
2019-04-26T02:03:09.812Z,880.92
2019-04-26T02:04:09.810Z,880.86
2019-04-26T02:05:09.786Z,880.78
2019-04-26T02:06:09.776Z,880.70
2019-04-26T02:07:09.772Z,880.68
2019-04-26T02:08:09.751Z,880.70
2019-04-26T02:09:09.741Z,880.67
2019-04-26T02:10:09.731Z,880.71
2019-04-26T02:11:09.719Z,880.75
2019-04-26T02:12:09.703Z,880.82
2019-04-26T02:13:09.702Z,880.83
2019-04-26T02:14:09.680Z,880.80
2019-04-26T02:15:09.668Z,880.74
2019-04-26T02:16:09.656Z,880.75
2019-04-26T02:17:09.657Z,880.78
2019-04-26T02:18:09.638Z,880.83
2019-04-26T02:19:09.622Z,880.88
2019-04-26T02:20:09.611Z,880.84
2019-04-26T02:21:09.596Z,880.79
2019-04-26T02:22:09.589Z,880.83
2019-04-26T02:23:09.569Z,880.81
2019-04-26T02:24:09.560Z,880.71
2019-04-26T02:25:09.549Z,880.69
2019-04-26T02:26:09.539Z,880.74
2019-04-26T02:27:09.527Z,880.68
2019-04-26T02:28:09.511Z,880.69
2019-04-26T02:29:09.509Z,880.67
2019-04-26T02:30:09.492Z,880.63
2019-04-26T02:31:09.477Z,880.61
2019-04-26T02:32:09.468Z,880.61
2019-04-26T02:33:09.454Z,880.50
2019-04-26T02:34:09.444Z,880.47
2019-04-26T02:35:09.425Z,880.49
2019-04-26T02:36:09.416Z,880.42
2019-04-26T02:37:09.413Z,880.44
2019-04-26T02:38:09.386Z,880.49
2019-04-26T02:39:09.379Z,880.55
2019-04-26T02:40:09.368Z,880.58
2019-04-26T02:41:09.355Z,880.61
2019-04-26T02:42:09.344Z,880.60
2019-04-26T02:43:09.341Z,880.53
2019-04-26T02:44:09.314Z,880.33
2019-04-26T02:45:09.323Z,880.48
2019-04-26T02:46:09.322Z,880.54
2019-04-26T02:47:09.286Z,880.48
2019-04-26T02:48:09.270Z,880.47
2019-04-26T02:49:09.271Z,880.46
2019-04-26T02:50:09.255Z,880.51
2019-04-26T02:51:09.237Z,880.51
2019-04-26T02:52:09.227Z,880.54
2019-04-26T02:53:09.212Z,880.47
2019-04-26T02:54:09.211Z,880.44
2019-04-26T02:55:09.186Z,880.37
2019-04-26T02:56:09.174Z,880.33
2019-04-26T02:57:09.161Z,880.31
2019-04-26T02:58:09.147Z,880.20
2019-04-26T02:59:09.138Z,880.21
2019-04-26T03:00:09.122Z,880.11
2019-04-26T03:01:09.114Z,880.17
2019-04-26T03:02:09.109Z,880.09
2019-04-26T03:03:09.086Z,880.18
2019-04-26T03:04:09.078Z,880.17
2019-04-26T03:05:09.086Z,880.28
2019-04-26T03:06:09.057Z,880.36
2019-04-26T03:07:09.040Z,880.28
2019-04-26T03:08:09.035Z,880.27
2019-04-26T03:09:09.053Z,880.25
2019-04-26T03:10:09.063Z,880.24
2019-04-26T03:11:08.992Z,880.25
2019-04-26T03:12:08.979Z,880.20
2019-04-26T03:13:08.968Z,880.20
2019-04-26T03:14:08.950Z,880.22
2019-04-26T03:15:14.009Z,880.17
2019-04-26T03:16:08.940Z,880.08
2019-04-26T03:17:08.925Z,880.00
2019-04-26T03:18:08.914Z,879.96
2019-04-26T03:19:08.899Z,879.96
2019-04-26T03:20:08.884Z,879.98
2019-04-26T03:21:08.871Z,880.08
2019-04-26T03:22:08.859Z,880.11
2019-04-26T03:23:08.861Z,880.15
2019-04-26T03:24:08.837Z,880.14
2019-04-26T03:25:08.823Z,880.20
2019-04-26T03:26:08.811Z,880.15
2019-04-26T03:27:08.800Z,880.21
2019-04-26T03:28:08.790Z,880.25
2019-04-26T03:29:08.780Z,880.21
2019-04-26T03:30:19.938Z,880.28
2019-04-26T03:31:08.752Z,880.27
2019-04-26T03:32:15.552Z,880.24
2019-04-26T03:33:08.836Z,880.20
2019-04-26T03:34:09.241Z,880.23
2019-04-26T03:35:08.764Z,880.25
2019-04-26T03:36:08.690Z,880.20
2019-04-26T03:37:20.211Z,880.13
2019-04-26T03:38:08.668Z,880.13
2019-04-26T03:39:08.650Z,880.15
2019-04-26T03:40:08.652Z,880.16
2019-04-26T03:41:08.626Z,880.15
2019-04-26T03:42:08.621Z,880.13
2019-04-26T03:43:08.609Z,880.19
2019-04-26T03:44:08.605Z,880.27
2019-04-26T03:45:08.591Z,880.25
2019-04-26T03:46:08.567Z,880.26
2019-04-26T03:47:08.562Z,880.17
2019-04-26T03:48:08.556Z,880.18
2019-04-26T03:49:08.532Z,880.16
2019-04-26T03:50:08.514Z,880.16
2019-04-26T03:51:08.516Z,880.11
2019-04-26T03:52:08.495Z,880.17
2019-04-26T03:53:08.476Z,880.19
2019-04-26T03:54:08.471Z,880.18
2019-04-26T03:55:08.458Z,880.18
2019-04-26T03:56:08.448Z,880.17
2019-04-26T03:57:08.435Z,880.23
2019-04-26T03:58:08.416Z,880.24
2019-04-26T03:59:08.409Z,880.25
2019-04-26T04:00:08.386Z,880.24
2019-04-26T04:01:08.380Z,880.32
2019-04-26T04:02:08.374Z,880.33
2019-04-26T04:03:08.350Z,880.29
2019-04-26T04:04:08.339Z,880.34
2019-04-26T04:05:08.330Z,880.40
2019-04-26T04:06:08.321Z,880.46
2019-04-26T04:07:08.317Z,880.45
2019-04-26T04:08:08.309Z,880.51
2019-04-26T04:09:08.284Z,880.58
2019-04-26T04:10:08.263Z,880.62
2019-04-26T04:11:08.254Z,880.65
2019-04-26T04:12:11.869Z,880.56
2019-04-26T04:13:08.228Z,880.59
2019-04-26T04:14:08.268Z,880.63
2019-04-26T04:15:08.208Z,880.58
2019-04-26T04:16:08.191Z,880.63
2019-04-26T04:17:08.193Z,880.67
2019-04-26T04:18:08.160Z,880.66
2019-04-26T04:19:08.152Z,880.71
2019-04-26T04:20:08.138Z,880.69
2019-04-26T04:21:08.117Z,880.76
2019-04-26T04:22:08.110Z,880.73
2019-04-26T04:23:08.094Z,880.73
2019-04-26T04:24:08.113Z,880.74
2019-04-26T04:25:08.071Z,880.80
2019-04-26T04:26:08.056Z,880.79
2019-04-26T04:27:08.059Z,880.77
2019-04-26T04:28:08.027Z,880.77
2019-04-26T04:29:08.020Z,880.84
2019-04-26T04:30:08.010Z,880.84
2019-04-26T04:31:07.988Z,880.88
2019-04-26T04:32:08.007Z,880.91
2019-04-26T04:33:07.957Z,880.97
2019-04-26T04:34:07.946Z,881.07
2019-04-26T04:35:07.938Z,881.04
2019-04-26T04:36:07.943Z,881.02
2019-04-26T04:37:07.937Z,881.03
2019-04-26T04:38:09.838Z,881.11
2019-04-26T04:39:12.191Z,881.17
2019-04-26T04:40:07.877Z,881.11
2019-04-26T04:41:08.552Z,881.15
2019-04-26T04:42:07.841Z,881.11
2019-04-26T04:43:07.916Z,881.08
2019-04-26T04:44:07.816Z,881.09
2019-04-26T04:45:07.802Z,881.12
2019-04-26T04:46:07.942Z,881.15
2019-04-26T04:47:22.778Z,881.14
2019-04-26T04:48:07.762Z,881.10
2019-04-26T04:49:07.755Z,881.10
2019-04-26T04:50:07.736Z,881.05
2019-04-26T04:51:07.726Z,881.03
2019-04-26T04:52:07.705Z,881.06
2019-04-26T04:53:07.705Z,881.08
2019-04-26T04:54:07.681Z,880.97
2019-04-26T04:55:08.218Z,880.89
2019-04-26T04:56:07.655Z,880.84
2019-04-26T04:57:07.641Z,880.85
2019-04-26T04:58:07.628Z,880.89
2019-04-26T04:59:07.612Z,880.83
2019-04-26T05:00:07.602Z,880.81
2019-04-26T05:01:07.587Z,880.79
2019-04-26T05:02:07.571Z,880.82
2019-04-26T05:03:07.563Z,880.83
2019-04-26T05:04:07.547Z,880.84
2019-04-26T05:05:07.533Z,880.90
2019-04-26T05:06:08.021Z,880.90
2019-04-26T05:07:07.505Z,880.88
2019-04-26T05:08:07.497Z,880.91
2019-04-26T05:09:07.480Z,880.99
2019-04-26T05:10:07.465Z,881.06
2019-04-26T05:11:07.450Z,881.03
2019-04-26T05:12:07.435Z,881.02
2019-04-26T05:13:07.424Z,881.10
2019-04-26T05:14:07.404Z,881.14
2019-04-26T05:15:07.399Z,881.16
2019-04-26T05:16:07.387Z,881.18
2019-04-26T05:17:07.377Z,881.17
2019-04-26T05:18:07.359Z,881.16
2019-04-26T05:19:07.346Z,881.18
2019-04-26T05:20:07.332Z,881.18
2019-04-26T05:21:07.314Z,881.16
2019-04-26T05:22:07.300Z,881.19
2019-04-26T05:23:07.290Z,881.20
2019-04-26T05:24:07.284Z,881.24
2019-04-26T05:25:07.262Z,881.22
2019-04-26T05:26:07.247Z,881.24
2019-04-26T05:27:07.245Z,881.33
2019-04-26T05:28:07.221Z,881.38
2019-04-26T05:29:07.205Z,881.40
2019-04-26T05:30:07.192Z,881.42
2019-04-26T05:31:07.173Z,881.43
2019-04-26T05:32:07.164Z,881.39
2019-04-26T05:33:07.150Z,881.35
2019-04-26T05:34:07.135Z,881.32
2019-04-26T05:35:07.120Z,881.28
2019-04-26T05:36:07.117Z,881.22
2019-04-26T05:37:07.090Z,881.24
2019-04-26T05:38:18.017Z,881.29
2019-04-26T05:39:07.070Z,881.30
2019-04-26T05:40:07.057Z,881.24
2019-04-26T05:41:07.039Z,881.33
2019-04-26T05:42:07.023Z,881.37
2019-04-26T05:43:07.011Z,881.43
2019-04-26T05:44:06.995Z,881.53
2019-04-26T05:45:06.982Z,881.53
2019-04-26T05:46:06.966Z,881.58
2019-04-26T05:47:06.957Z,881.67
2019-04-26T05:48:11.463Z,881.74
2019-04-26T05:49:06.936Z,881.76
2019-04-26T05:50:06.915Z,881.78
2019-04-26T05:51:06.900Z,881.80
2019-04-26T05:52:06.899Z,881.79
2019-04-26T05:53:06.876Z,881.78
2019-04-26T05:54:06.854Z,881.76
2019-04-26T05:55:06.842Z,881.83
2019-04-26T05:56:06.830Z,881.82
2019-04-26T05:57:06.824Z,881.88
2019-04-26T05:58:06.806Z,881.91
2019-04-26T05:59:06.792Z,881.91
2019-04-26T06:00:06.771Z,881.88
2019-04-26T06:01:06.759Z,881.85
2019-04-26T06:02:06.739Z,881.87
2019-04-26T06:03:06.732Z,881.93
2019-04-26T06:04:06.709Z,881.95
2019-04-26T06:05:06.701Z,881.97
2019-04-26T06:06:06.697Z,881.96
2019-04-26T06:07:06.666Z,882.00
2019-04-26T06:08:06.652Z,882.00
2019-04-26T06:09:06.633Z,882.03
2019-04-26T06:10:06.622Z,882.08
2019-04-26T06:11:06.604Z,882.08
2019-04-26T06:12:06.596Z,882.06
2019-04-26T06:13:06.590Z,882.05
2019-04-26T06:14:06.580Z,882.06
2019-04-26T06:15:06.555Z,882.08
2019-04-26T06:16:06.537Z,882.15
2019-04-26T06:17:06.527Z,882.17
2019-04-26T06:18:06.513Z,882.22
2019-04-26T06:19:06.493Z,882.26
2019-04-26T06:20:06.489Z,882.28
2019-04-26T06:21:06.471Z,882.27
2019-04-26T06:22:06.451Z,882.25
2019-04-26T06:23:06.438Z,882.23
2019-04-26T06:24:06.434Z,882.29
2019-04-26T06:25:06.412Z,882.30
2019-04-26T06:26:06.392Z,882.34
2019-04-26T06:27:13.704Z,882.42
2019-04-26T06:28:06.366Z,882.49
2019-04-26T06:29:06.348Z,882.47
2019-04-26T06:30:06.338Z,882.45
2019-04-26T06:31:06.321Z,882.48
2019-04-26T06:32:06.303Z,882.49
2019-04-26T06:33:06.370Z,882.58
2019-04-26T06:34:06.286Z,882.57
2019-04-26T06:35:06.266Z,882.61
2019-04-26T06:36:06.300Z,882.56
2019-04-26T06:37:06.247Z,882.59
2019-04-26T06:38:06.221Z,882.63
2019-04-26T06:39:06.198Z,882.65
2019-04-26T06:40:06.186Z,882.67
2019-04-26T06:41:06.172Z,882.66
2019-04-26T06:42:06.159Z,882.62
2019-04-26T06:43:06.151Z,882.62
2019-04-26T06:44:06.132Z,882.64
2019-04-26T06:45:06.112Z,882.63
2019-04-26T06:46:06.100Z,882.67
2019-04-26T06:47:06.723Z,882.65
2019-04-26T06:48:06.131Z,882.66
2019-04-26T06:49:06.060Z,882.65
2019-04-26T06:50:06.043Z,882.65
2019-04-26T06:51:06.926Z,882.67
2019-04-26T06:52:08.420Z,882.66
2019-04-26T06:53:06.271Z,882.68
2019-04-26T06:54:05.986Z,882.76
2019-04-26T06:55:06.791Z,882.71
2019-04-26T06:56:05.960Z,882.74
2019-04-26T06:57:10.618Z,882.74
2019-04-26T06:58:07.162Z,882.74
2019-04-26T06:59:05.932Z,882.73
2019-04-26T07:00:06.642Z,882.77
2019-04-26T07:01:05.884Z,882.79
2019-04-26T07:02:06.170Z,882.83
2019-04-26T07:03:05.854Z,882.79
2019-04-26T07:04:05.841Z,882.87
2019-04-26T07:05:06.909Z,882.86
2019-04-26T07:06:06.588Z,882.91
2019-04-26T07:07:05.794Z,882.96
2019-04-26T07:08:06.835Z,882.96
2019-04-26T07:09:05.759Z,882.94
2019-04-26T07:10:06.283Z,882.93
2019-04-26T07:11:06.845Z,882.93
2019-04-26T07:12:05.721Z,882.90
2019-04-26T07:13:05.709Z,882.92
2019-04-26T07:14:06.831Z,882.95
2019-04-26T07:15:05.845Z,882.93
2019-04-26T07:16:17.757Z,882.97
2019-04-26T07:17:05.650Z,882.96
2019-04-26T07:18:06.407Z,882.97
2019-04-26T07:19:05.694Z,882.99
2019-04-26T07:20:06.045Z,883.04
2019-04-26T07:21:05.594Z,883.03
2019-04-26T07:22:06.196Z,883.04
2019-04-26T07:23:05.897Z,883.07
2019-04-26T07:24:05.601Z,883.10
2019-04-26T07:25:05.969Z,883.15
2019-04-26T07:26:05.917Z,883.25
2019-04-26T07:27:05.589Z,883.22
2019-04-26T07:28:08.113Z,883.26
2019-04-26T07:29:06.741Z,883.28
2019-04-26T07:30:05.534Z,883.24
2019-04-26T07:31:06.194Z,883.23
2019-04-26T07:32:05.431Z,883.22
2019-04-26T07:33:06.262Z,883.24
2019-04-26T07:34:05.399Z,883.25
2019-04-26T07:35:06.626Z,883.15
2019-04-26T07:36:05.605Z,883.20
2019-04-26T07:37:05.362Z,883.21
2019-04-26T07:38:05.340Z,883.24
2019-04-26T07:39:15.675Z,883.27
2019-04-26T07:40:05.322Z,883.30
2019-04-26T07:41:05.301Z,883.28
2019-04-26T07:42:05.288Z,883.33
2019-04-26T07:43:06.030Z,883.36
2019-04-26T07:44:05.585Z,883.36
2019-04-26T07:45:05.583Z,883.34
2019-04-26T07:46:05.854Z,883.31
2019-04-26T07:47:05.990Z,883.29
2019-04-26T07:48:05.193Z,883.24
2019-04-26T07:49:05.973Z,883.26
2019-04-26T07:50:05.169Z,883.28
2019-04-26T07:51:06.392Z,883.28
2019-04-26T07:52:06.312Z,883.22
2019-04-26T07:53:05.135Z,883.22
2019-04-26T07:54:05.119Z,883.26
2019-04-26T07:55:05.088Z,883.25
2019-04-26T07:56:05.078Z,883.19
2019-04-26T07:57:05.055Z,883.18
2019-04-26T07:58:05.275Z,883.13
2019-04-26T07:59:06.009Z,883.07
2019-04-26T08:00:05.020Z,883.06
2019-04-26T08:01:05.478Z,883.10
2019-04-26T08:02:05.105Z,883.11
2019-04-26T08:03:05.475Z,883.11
2019-04-26T08:04:05.313Z,883.19
2019-04-26T08:05:05.838Z,883.21
2019-04-26T08:06:05.784Z,883.23
2019-04-26T08:07:06.072Z,883.23
2019-04-26T08:08:05.867Z,883.27
2019-04-26T08:09:06.002Z,883.22
2019-04-26T08:10:05.920Z,883.22
2019-04-26T08:11:06.117Z,883.31
2019-04-26T08:12:05.976Z,883.28
2019-04-26T08:13:06.025Z,883.25
2019-04-26T08:14:06.088Z,883.26
2019-04-26T08:15:06.013Z,883.23
2019-04-26T08:16:05.349Z,883.30
2019-04-26T08:17:05.303Z,883.34
2019-04-26T08:18:05.245Z,883.41
2019-04-26T08:19:05.842Z,883.46
2019-04-26T08:20:07.228Z,883.46
2019-04-26T08:21:10.033Z,883.47
2019-04-26T08:22:14.893Z,883.38
2019-04-26T08:23:09.016Z,883.37
2019-04-26T08:24:05.211Z,883.39
2019-04-26T08:25:06.717Z,883.40
2019-04-26T08:26:05.108Z,883.41
2019-04-26T08:27:13.572Z,883.40
2019-04-26T08:28:05.630Z,883.44
2019-04-26T08:29:06.555Z,883.45
2019-04-26T08:30:10.130Z,883.48
2019-04-26T08:31:06.016Z,883.53
2019-04-26T08:32:04.561Z,883.56
2019-04-26T08:33:07.410Z,883.55
2019-04-26T08:34:04.524Z,883.59
2019-04-26T08:35:08.191Z,883.53
2019-04-26T08:36:04.496Z,883.53
2019-04-26T08:37:04.490Z,883.50
2019-04-26T08:38:07.953Z,883.53
2019-04-26T08:39:04.453Z,883.57
2019-04-26T08:40:04.438Z,883.62
2019-04-26T08:41:04.945Z,883.68
2019-04-26T08:42:04.452Z,883.69
2019-04-26T08:43:04.396Z,883.68
2019-04-26T08:44:05.734Z,883.72
2019-04-26T08:45:08.768Z,883.72
2019-04-26T08:46:04.348Z,883.72
2019-04-26T08:47:06.050Z,883.71
2019-04-26T08:48:04.316Z,883.70
2019-04-26T08:49:06.483Z,883.74
2019-04-26T08:50:04.288Z,883.77
2019-04-26T08:51:04.292Z,883.83
2019-04-26T08:52:13.970Z,883.83
2019-04-26T08:53:04.247Z,883.84
2019-04-26T08:54:04.241Z,883.82
2019-04-26T08:55:04.223Z,883.82
2019-04-26T08:56:04.214Z,883.84
2019-04-26T08:57:04.189Z,883.85
2019-04-26T08:58:04.173Z,883.78
2019-04-26T08:59:04.161Z,883.82
2019-04-26T09:00:04.148Z,883.80
2019-04-26T09:01:04.130Z,883.83
2019-04-26T09:02:04.114Z,883.85
2019-04-26T09:03:11.392Z,883.85
2019-04-26T09:04:04.144Z,883.86
2019-04-26T09:05:04.069Z,883.85
2019-04-26T09:06:04.057Z,883.94
2019-04-26T09:07:04.038Z,883.94
2019-04-26T09:08:04.100Z,883.95
2019-04-26T09:09:04.009Z,883.99
2019-04-26T09:10:10.820Z,884.05
2019-04-26T09:11:03.982Z,884.08
2019-04-26T09:12:08.049Z,884.16
2019-04-26T09:13:03.947Z,884.17
2019-04-26T09:14:03.942Z,884.21
2019-04-26T09:15:03.922Z,884.22
2019-04-26T09:16:03.982Z,884.20
2019-04-26T09:17:03.898Z,884.21
2019-04-26T09:18:06.098Z,884.13
2019-04-26T09:19:03.867Z,884.19
2019-04-26T09:20:07.861Z,884.24
2019-04-26T09:21:03.836Z,884.24
2019-04-26T09:22:12.950Z,884.23
2019-04-26T09:23:04.961Z,884.20
2019-04-26T09:24:03.793Z,884.24
2019-04-26T09:25:03.767Z,884.24
2019-04-26T09:26:03.828Z,884.19
2019-04-26T09:27:03.748Z,884.19
2019-04-26T09:28:03.731Z,884.22
2019-04-26T09:29:03.721Z,884.16
2019-04-26T09:30:04.931Z,884.16
2019-04-26T09:31:03.689Z,884.13
2019-04-26T09:32:03.673Z,884.15
2019-04-26T09:33:03.678Z,884.21
2019-04-26T09:34:06.317Z,884.32
2019-04-26T09:35:03.630Z,884.38
2019-04-26T09:36:03.610Z,884.42
2019-04-26T09:37:03.598Z,884.40
2019-04-26T09:38:03.586Z,884.33
2019-04-26T09:39:03.990Z,884.33
2019-04-26T09:40:10.223Z,884.33
2019-04-26T09:41:03.533Z,884.38
2019-04-26T09:42:05.899Z,884.44
2019-04-26T09:43:03.511Z,884.52
2019-04-26T09:44:03.491Z,884.55
2019-04-26T09:45:03.481Z,884.55
2019-04-26T09:46:03.470Z,884.64
2019-04-26T09:47:03.444Z,884.65
2019-04-26T09:48:03.431Z,884.66
2019-04-26T09:49:07.067Z,884.65
2019-04-26T09:50:03.403Z,884.63
2019-04-26T09:51:03.395Z,884.58
2019-04-26T09:52:03.397Z,884.64
2019-04-26T09:53:03.356Z,884.68
2019-04-26T09:54:03.344Z,884.75
2019-04-26T09:55:03.326Z,884.78
2019-04-26T09:56:03.312Z,884.80
2019-04-26T09:57:03.298Z,884.83
2019-04-26T09:58:03.290Z,884.79
2019-04-26T09:59:05.567Z,884.79
2019-04-26T10:00:03.259Z,884.79
2019-04-26T10:01:06.003Z,884.79
2019-04-26T10:02:03.228Z,884.81
2019-04-26T10:03:05.407Z,884.82
2019-04-26T10:04:03.194Z,884.84
2019-04-26T10:05:03.175Z,884.81
2019-04-26T10:06:03.162Z,884.78
2019-04-26T10:07:04.075Z,884.83
2019-04-26T10:08:03.135Z,884.84
2019-04-26T10:09:03.111Z,884.83
2019-04-26T10:10:03.099Z,884.82
2019-04-26T10:11:05.754Z,884.85
2019-04-26T10:12:03.071Z,884.90
2019-04-26T10:13:03.058Z,884.87
2019-04-26T10:14:03.042Z,884.93
2019-04-26T10:15:03.027Z,884.96
2019-04-26T10:16:04.300Z,885.01
2019-04-26T10:17:02.996Z,885.05
2019-04-26T10:18:02.980Z,885.05
2019-04-26T10:19:02.976Z,885.09
2019-04-26T10:20:02.951Z,885.10
2019-04-26T10:21:02.939Z,885.09
2019-04-26T10:22:02.929Z,885.14
2019-04-26T10:23:02.903Z,885.19
2019-04-26T10:24:02.889Z,885.25
2019-04-26T10:25:08.095Z,885.28
2019-04-26T10:26:02.863Z,885.28
2019-04-26T10:27:03.436Z,885.30
2019-04-26T10:28:02.831Z,885.29
2019-04-26T10:29:02.821Z,885.30
2019-04-26T10:30:07.752Z,885.25
2019-04-26T10:31:02.790Z,885.25
2019-04-26T10:32:02.772Z,885.23
2019-04-26T10:33:03.535Z,885.20
2019-04-26T10:34:02.742Z,885.18
2019-04-26T10:35:02.732Z,885.15
2019-04-26T10:36:02.724Z,885.12
2019-04-26T10:37:06.057Z,885.13
2019-04-26T10:38:02.679Z,885.13
2019-04-26T10:39:02.665Z,885.14
2019-04-26T10:40:02.647Z,885.13
2019-04-26T10:41:02.638Z,885.11
2019-04-26T10:42:02.625Z,885.18
2019-04-26T10:43:02.603Z,885.21
2019-04-26T10:44:02.586Z,885.32
2019-04-26T10:45:02.575Z,885.48
2019-04-26T10:46:02.561Z,885.58
2019-04-26T10:47:04.363Z,885.58
2019-04-26T10:48:02.532Z,885.66
2019-04-26T10:49:08.516Z,885.62
2019-04-26T10:50:02.512Z,885.65
2019-04-26T10:51:03.233Z,885.64
2019-04-26T10:52:02.472Z,885.57
2019-04-26T10:53:02.450Z,885.57
2019-04-26T10:54:05.898Z,885.61
2019-04-26T10:55:02.423Z,885.62
2019-04-26T10:56:02.403Z,885.64
2019-04-26T10:57:02.387Z,885.70
2019-04-26T10:58:02.369Z,885.70
2019-04-26T10:59:02.371Z,885.74
2019-04-26T11:00:02.346Z,885.72
2019-04-26T11:01:02.332Z,885.66
2019-04-26T11:02:02.314Z,885.70
2019-04-26T11:03:04.427Z,885.83
2019-04-26T11:04:02.301Z,885.94
2019-04-26T11:05:02.268Z,885.96
2019-04-26T11:06:02.252Z,885.93
2019-04-26T11:07:03.441Z,885.89
2019-04-26T11:08:02.233Z,885.87
2019-04-26T11:09:02.207Z,885.87
2019-04-26T11:10:03.035Z,885.86
2019-04-26T11:11:02.178Z,885.85
2019-04-26T11:12:02.160Z,885.84
2019-04-26T11:13:02.164Z,885.81
2019-04-26T11:14:02.127Z,885.75
2019-04-26T11:15:02.122Z,885.73
2019-04-26T11:16:02.366Z,885.67
2019-04-26T11:17:02.090Z,885.64
2019-04-26T11:18:02.071Z,885.62
2019-04-26T11:19:02.269Z,885.54
2019-04-26T11:20:02.035Z,885.56
2019-04-26T11:21:02.024Z,885.60
2019-04-26T11:22:02.004Z,885.65
2019-04-26T11:23:01.993Z,885.62
2019-04-26T11:24:01.980Z,885.65
2019-04-26T11:25:01.977Z,885.61
2019-04-26T11:26:02.939Z,885.57
2019-04-26T11:27:05.307Z,885.57
2019-04-26T11:28:01.913Z,885.55
2019-04-26T11:29:01.899Z,885.52
2019-04-26T11:30:11.182Z,885.55
2019-04-26T11:31:01.871Z,885.58
2019-04-26T11:32:02.751Z,885.60
2019-04-26T11:33:01.839Z,885.58
2019-04-26T11:34:05.500Z,885.60
2019-04-26T11:35:02.137Z,885.62
2019-04-26T11:36:03.395Z,885.66
2019-04-26T11:37:01.780Z,885.65
2019-04-26T11:38:01.809Z,885.68
2019-04-26T11:39:05.602Z,885.67
2019-04-26T11:40:01.734Z,885.62
2019-04-26T11:41:06.321Z,885.62
2019-04-26T11:42:01.704Z,885.61
2019-04-26T11:43:01.690Z,885.60
2019-04-26T11:44:01.680Z,885.56
2019-04-26T11:45:06.313Z,885.53
2019-04-26T11:46:04.507Z,885.51
2019-04-26T11:47:03.296Z,885.51
2019-04-26T11:48:03.289Z,885.53
2019-04-26T11:49:03.275Z,885.58
2019-04-26T11:50:01.634Z,885.61
2019-04-26T11:51:01.561Z,885.58
2019-04-26T11:52:02.748Z,885.61
2019-04-26T11:53:01.530Z,885.58
2019-04-26T11:54:01.520Z,885.54
2019-04-26T11:55:01.505Z,885.53
2019-04-26T11:56:04.602Z,885.52
2019-04-26T11:57:01.477Z,885.54
2019-04-26T11:58:01.466Z,885.54
2019-04-26T11:59:01.443Z,885.53
2019-04-26T12:00:05.409Z,885.53
2019-04-26T12:01:01.414Z,885.51
2019-04-26T12:02:01.402Z,885.50
2019-04-26T12:03:01.389Z,885.59
2019-04-26T12:04:01.370Z,885.61
2019-04-26T12:05:01.362Z,885.64
2019-04-26T12:06:01.339Z,885.69
2019-04-26T12:07:01.321Z,885.71
2019-04-26T12:08:01.307Z,885.72
2019-04-26T12:09:01.293Z,885.72
2019-04-26T12:10:01.284Z,885.71
2019-04-26T12:11:01.262Z,885.71
2019-04-26T12:12:04.806Z,885.69
2019-04-26T12:13:06.025Z,885.72
2019-04-26T12:14:03.853Z,885.70
2019-04-26T12:15:03.846Z,885.69
2019-04-26T12:16:01.189Z,885.72
2019-04-26T12:17:01.381Z,885.73
2019-04-26T12:18:01.229Z,885.77
2019-04-26T12:19:01.144Z,885.84
2019-04-26T12:20:01.129Z,885.85
2019-04-26T12:21:02.112Z,885.87
2019-04-26T12:22:04.386Z,885.86
2019-04-26T12:23:01.081Z,885.90
2019-04-26T12:24:01.066Z,885.89
2019-04-26T12:25:03.376Z,885.89
2019-04-26T12:26:01.042Z,885.85
2019-04-26T12:27:01.060Z,885.88
2019-04-26T12:28:01.941Z,885.90